sensor_id;sensor_type;location;lat;lon;timestamp;P1;durP1;ratioP1;P2;durP2;ratioP2
68872;SDS011;55907;50.806;12.882;2023-02-22T00:01:00;6.8;;;4.6;;
68872;SDS011;55907;50.806;12.882;2023-02-22T00:04:02;6.5;;;4.7;;
68872;SDS011;55907;50.806;12.882;2023-02-22T00:07:03;8.4;;;5.1;;
68872;SDS011;55907;50.806;12.882;2023-02-22T00:10:05;7.3;;;4.7;;
68872;SDS011;55907;50.806;12.882;2023-02-22T00:13:07;7.1;;;4.6;;
68872;SDS011;55907;50.806;12.882;2023-02-22T00:16:07;7.3;;;4.4;;
68872;SDS011;55907;50.806;12.882;2023-02-22T00:19:09;7.9;;;4.6;;
68872;SDS011;55907;50.806;12.882;2023-02-22T00:22:10;7.6;;;5.0;;
68872;SDS011;55907;50.806;12.882;2023-02-22T00:25:12;7.7;;;5.3;;
68872;SDS011;55907;50.806;12.882;2023-02-22T00:28:14;9.6;;;5.3;;
68872;SDS011;55907;50.806;12.882;2023-02-22T00:31:15;8.1;;;4.7;;
68872;SDS011;55907;50.806;12.882;2023-02-22T00:34:16;8.0;;;4.9;;
68872;SDS011;55907;50.806;12.882;2023-02-22T00:37:18;7.7;;;4.6;;
68872;SDS011;55907;50.806;12.882;2023-02-22T00:40:20;9.1;;;5.0;;
68872;SDS011;55907;50.806;12.882;2023-02-22T00:43:21;7.5;;;5.1;;
68872;SDS011;55907;50.806;12.882;2023-02-22T00:46:22;8.8;;;5.4;;
68872;SDS011;55907;50.806;12.882;2023-02-22T00:49:24;11.1;;;6.0;;
68872;SDS011;55907;50.806;12.882;2023-02-22T00:52:25;8.6;;;5.7;;
68872;SDS011;55907;50.806;12.882;2023-02-22T00:55:29;9.5;;;6.1;;
68872;SDS011;55907;50.806;12.882;2023-02-22T00:58:28;8.7;;;5.5;;
68872;SDS011;55907;50.806;12.882;2023-02-22T01:04:31;9.2;;;5.6;;
68872;SDS011;55907;50.806;12.882;2023-02-22T01:07:33;9.8;;;5.9;;
68872;SDS011;55907;50.806;12.882;2023-02-22T01:10:34;10.5;;;6.1;;
68872;SDS011;55907;50.806;12.882;2023-02-22T01:13:36;10.2;;;6.5;;
68872;SDS011;55907;50.806;12.882;2023-02-22T01:16:37;11.6;;;7.1;;
68872;SDS011;55907;50.806;12.882;2023-02-22T01:19:39;11.2;;;6.9;;
68872;SDS011;55907;50.806;12.882;2023-02-22T01:22:40;12.7;;;7.7;;
68872;SDS011;55907;50.806;12.882;2023-02-22T01:25:42;14.1;;;7.4;;
68872;SDS011;55907;50.806;12.882;2023-02-22T01:28:43;13.6;;;7.7;;
68872;SDS011;55907;50.806;12.882;2023-02-22T01:31:49;12.3;;;8.1;;
68872;SDS011;55907;50.806;12.882;2023-02-22T01:34:46;13.6;;;8.2;;
68872;SDS011;55907;50.806;12.882;2023-02-22T01:37:48;12.5;;;8.1;;
68872;SDS011;55907;50.806;12.882;2023-02-22T01:40:49;13.3;;;8.8;;
68872;SDS011;55907;50.806;12.882;2023-02-22T01:43:50;13.6;;;7.8;;
68872;SDS011;55907;50.806;12.882;2023-02-22T01:46:52;12.3;;;8.3;;
68872;SDS011;55907;50.806;12.882;2023-02-22T01:49:53;14.7;;;8.9;;
68872;SDS011;55907;50.806;12.882;2023-02-22T01:52:55;11.6;;;8.2;;
68872;SDS011;55907;50.806;12.882;2023-02-22T01:55:56;13.5;;;8.4;;
68872;SDS011;55907;50.806;12.882;2023-02-22T01:58:59;13.4;;;8.1;;
68872;SDS011;55907;50.806;12.882;2023-02-22T02:01:59;13.9;;;8.5;;
68872;SDS011;55907;50.806;12.882;2023-02-22T02:05:01;14.1;;;8.4;;
68872;SDS011;55907;50.806;12.882;2023-02-22T02:08:04;13.7;;;7.9;;
68872;SDS011;55907;50.806;12.882;2023-02-22T02:11:05;13.1;;;8.8;;
68872;SDS011;55907;50.806;12.882;2023-02-22T02:14:06;12.3;;;7.6;;
68872;SDS011;55907;50.806;12.882;2023-02-22T02:17:07;18.1;;;10.9;;
68872;SDS011;55907;50.806;12.882;2023-02-22T02:20:09;15.1;;;8.8;;
68872;SDS011;55907;50.806;12.882;2023-02-22T02:23:16;15.3;;;8.5;;
68872;SDS011;55907;50.806;12.882;2023-02-22T02:26:16;14.6;;;8.4;;
68872;SDS011;55907;50.806;12.882;2023-02-22T02:29:20;13.4;;;7.5;;
68872;SDS011;55907;50.806;12.882;2023-02-22T02:32:19;13.5;;;8.0;;
68872;SDS011;55907;50.806;12.882;2023-02-22T02:35:18;15.4;;;8.4;;
68872;SDS011;55907;50.806;12.882;2023-02-22T02:38:20;13.8;;;7.6;;
68872;SDS011;55907;50.806;12.882;2023-02-22T02:41:19;11.8;;;7.6;;
68872;SDS011;55907;50.806;12.882;2023-02-22T02:44:21;12.0;;;7.1;;
68872;SDS011;55907;50.806;12.882;2023-02-22T02:47:22;11.9;;;7.5;;
68872;SDS011;55907;50.806;12.882;2023-02-22T02:50:24;15.3;;;7.4;;
68872;SDS011;55907;50.806;12.882;2023-02-22T02:53:26;11.4;;;7.3;;
68872;SDS011;55907;50.806;12.882;2023-02-22T02:56:26;14.5;;;8.1;;
68872;SDS011;55907;50.806;12.882;2023-02-22T02:59:29;12.5;;;7.2;;
68872;SDS011;55907;50.806;12.882;2023-02-22T03:02:34;11.5;;;7.9;;
68872;SDS011;55907;50.806;12.882;2023-02-22T03:05:36;12.8;;;6.9;;
68872;SDS011;55907;50.806;12.882;2023-02-22T03:08:33;13.4;;;8.0;;
68872;SDS011;55907;50.806;12.882;2023-02-22T03:11:36;12.8;;;7.7;;
68872;SDS011;55907;50.806;12.882;2023-02-22T03:14:37;12.2;;;7.6;;
68872;SDS011;55907;50.806;12.882;2023-02-22T03:17:39;13.4;;;7.4;;
68872;SDS011;55907;50.806;12.882;2023-02-22T03:20:41;13.5;;;7.8;;
68872;SDS011;55907;50.806;12.882;2023-02-22T03:23:42;14.4;;;7.8;;
68872;SDS011;55907;50.806;12.882;2023-02-22T03:26:42;12.4;;;7.4;;
68872;SDS011;55907;50.806;12.882;2023-02-22T03:29:43;12.0;;;7.7;;
68872;SDS011;55907;50.806;12.882;2023-02-22T03:32:45;12.4;;;7.3;;
68872;SDS011;55907;50.806;12.882;2023-02-22T03:35:47;12.8;;;7.6;;
68872;SDS011;55907;50.806;12.882;2023-02-22T03:38:47;13.0;;;7.3;;
68872;SDS011;55907;50.806;12.882;2023-02-22T03:41:49;12.4;;;7.0;;
68872;SDS011;55907;50.806;12.882;2023-02-22T03:44:50;15.1;;;7.9;;
68872;SDS011;55907;50.806;12.882;2023-02-22T03:47:52;15.9;;;7.5;;
68872;SDS011;55907;50.806;12.882;2023-02-22T03:50:53;15.0;;;7.9;;
68872;SDS011;55907;50.806;12.882;2023-02-22T03:53:55;12.2;;;7.4;;
68872;SDS011;55907;50.806;12.882;2023-02-22T03:56:57;13.5;;;7.9;;
68872;SDS011;55907;50.806;12.882;2023-02-22T03:59:58;13.4;;;8.1;;
68872;SDS011;55907;50.806;12.882;2023-02-22T04:02:59;14.2;;;7.8;;
68872;SDS011;55907;50.806;12.882;2023-02-22T04:06:01;12.8;;;7.5;;
68872;SDS011;55907;50.806;12.882;2023-02-22T04:09:02;14.0;;;8.7;;
68872;SDS011;55907;50.806;12.882;2023-02-22T04:12:04;15.5;;;9.2;;
68872;SDS011;55907;50.806;12.882;2023-02-22T04:15:06;15.1;;;8.7;;
68872;SDS011;55907;50.806;12.882;2023-02-22T04:21:08;14.8;;;8.3;;
68872;SDS011;55907;50.806;12.882;2023-02-22T04:24:10;13.7;;;8.0;;
68872;SDS011;55907;50.806;12.882;2023-02-22T04:27:11;12.5;;;7.4;;
68872;SDS011;55907;50.806;12.882;2023-02-22T04:30:12;14.7;;;7.9;;
68872;SDS011;55907;50.806;12.882;2023-02-22T04:33:14;12.3;;;7.8;;
68872;SDS011;55907;50.806;12.882;2023-02-22T04:36:15;13.4;;;7.5;;
68872;SDS011;55907;50.806;12.882;2023-02-22T04:39:17;15.6;;;8.3;;
68872;SDS011;55907;50.806;12.882;2023-02-22T04:42:18;13.6;;;8.1;;
68872;SDS011;55907;50.806;12.882;2023-02-22T04:45:20;13.7;;;8.6;;
68872;SDS011;55907;50.806;12.882;2023-02-22T04:48:21;15.5;;;8.2;;
68872;SDS011;55907;50.806;12.882;2023-02-22T04:51:23;14.4;;;8.3;;
68872;SDS011;55907;50.806;12.882;2023-02-22T04:54:24;15.4;;;8.6;;
68872;SDS011;55907;50.806;12.882;2023-02-22T04:57:26;15.1;;;7.9;;
68872;SDS011;55907;50.806;12.882;2023-02-22T05:00:27;13.5;;;7.6;;
68872;SDS011;55907;50.806;12.882;2023-02-22T05:03:29;13.6;;;7.6;;
68872;SDS011;55907;50.806;12.882;2023-02-22T05:06:30;14.2;;;7.8;;
68872;SDS011;55907;50.806;12.882;2023-02-22T05:09:32;14.1;;;8.3;;
68872;SDS011;55907;50.806;12.882;2023-02-22T05:12:33;13.7;;;7.8;;
68872;SDS011;55907;50.806;12.882;2023-02-22T05:15:35;15.2;;;7.4;;
68872;SDS011;55907;50.806;12.882;2023-02-22T05:18:36;13.3;;;7.3;;
68872;SDS011;55907;50.806;12.882;2023-02-22T05:24:39;14.8;;;7.6;;
68872;SDS011;55907;50.806;12.882;2023-02-22T05:27:41;15.1;;;8.2;;
68872;SDS011;55907;50.806;12.882;2023-02-22T05:30:42;14.1;;;8.4;;
68872;SDS011;55907;50.806;12.882;2023-02-22T05:33:44;15.6;;;8.1;;
68872;SDS011;55907;50.806;12.882;2023-02-22T05:36:45;12.9;;;7.8;;
68872;SDS011;55907;50.806;12.882;2023-02-22T05:39:47;14.1;;;8.0;;
68872;SDS011;55907;50.806;12.882;2023-02-22T05:42:49;13.9;;;8.6;;
68872;SDS011;55907;50.806;12.882;2023-02-22T05:45:50;14.8;;;8.6;;
68872;SDS011;55907;50.806;12.882;2023-02-22T05:48:51;15.3;;;8.0;;
68872;SDS011;55907;50.806;12.882;2023-02-22T05:51:53;13.3;;;8.1;;
68872;SDS011;55907;50.806;12.882;2023-02-22T05:54:54;13.5;;;8.2;;
68872;SDS011;55907;50.806;12.882;2023-02-22T05:57:56;12.9;;;8.0;;
68872;SDS011;55907;50.806;12.882;2023-02-22T06:00:57;14.4;;;8.4;;
68872;SDS011;55907;50.806;12.882;2023-02-22T06:03:59;15.7;;;8.8;;
68872;SDS011;55907;50.806;12.882;2023-02-22T06:07:00;13.3;;;8.1;;
68872;SDS011;55907;50.806;12.882;2023-02-22T06:10:02;13.5;;;8.3;;
68872;SDS011;55907;50.806;12.882;2023-02-22T06:13:04;13.9;;;8.2;;
68872;SDS011;55907;50.806;12.882;2023-02-22T06:16:05;13.3;;;8.0;;
68872;SDS011;55907;50.806;12.882;2023-02-22T06:19:06;13.7;;;8.1;;
68872;SDS011;55907;50.806;12.882;2023-02-22T06:22:13;13.9;;;8.1;;
68872;SDS011;55907;50.806;12.882;2023-02-22T06:25:12;14.6;;;8.0;;
68872;SDS011;55907;50.806;12.882;2023-02-22T06:28:10;15.9;;;8.6;;
68872;SDS011;55907;50.806;12.882;2023-02-22T06:31:12;15.2;;;8.4;;
68872;SDS011;55907;50.806;12.882;2023-02-22T06:34:14;16.3;;;7.8;;
68872;SDS011;55907;50.806;12.882;2023-02-22T06:37:15;11.8;;;7.4;;
68872;SDS011;55907;50.806;12.882;2023-02-22T06:40:16;13.2;;;7.4;;
68872;SDS011;55907;50.806;12.882;2023-02-22T06:43:18;14.5;;;8.3;;
68872;SDS011;55907;50.806;12.882;2023-02-22T06:46:19;13.4;;;7.9;;
68872;SDS011;55907;50.806;12.882;2023-02-22T06:49:21;13.2;;;7.4;;
68872;SDS011;55907;50.806;12.882;2023-02-22T06:52:22;14.5;;;8.0;;
68872;SDS011;55907;50.806;12.882;2023-02-22T06:55:24;13.2;;;7.2;;
68872;SDS011;55907;50.806;12.882;2023-02-22T06:58:25;13.6;;;7.5;;
68872;SDS011;55907;50.806;12.882;2023-02-22T07:01:28;13.1;;;7.7;;
68872;SDS011;55907;50.806;12.882;2023-02-22T07:04:28;13.4;;;7.3;;
68872;SDS011;55907;50.806;12.882;2023-02-22T07:07:30;11.9;;;6.8;;
68872;SDS011;55907;50.806;12.882;2023-02-22T07:10:32;13.5;;;7.2;;
68872;SDS011;55907;50.806;12.882;2023-02-22T07:13:33;10.5;;;6.6;;
68872;SDS011;55907;50.806;12.882;2023-02-22T07:16:34;13.8;;;7.4;;
68872;SDS011;55907;50.806;12.882;2023-02-22T07:19:36;14.4;;;7.6;;
68872;SDS011;55907;50.806;12.882;2023-02-22T07:22:38;13.2;;;6.7;;
68872;SDS011;55907;50.806;12.882;2023-02-22T07:25:39;12.0;;;6.8;;
68872;SDS011;55907;50.806;12.882;2023-02-22T07:28:40;16.4;;;10.0;;
68872;SDS011;55907;50.806;12.882;2023-02-22T07:31:42;17.6;;;9.5;;
68872;SDS011;55907;50.806;12.882;2023-02-22T07:34:43;14.1;;;8.1;;
68872;SDS011;55907;50.806;12.882;2023-02-22T07:37:45;12.2;;;6.5;;
68872;SDS011;55907;50.806;12.882;2023-02-22T07:40:46;9.8;;;6.2;;
68872;SDS011;55907;50.806;12.882;2023-02-22T07:43:48;10.6;;;6.3;;
68872;SDS011;55907;50.806;12.882;2023-02-22T07:46:49;13.2;;;7.2;;
68872;SDS011;55907;50.806;12.882;2023-02-22T07:49:51;12.4;;;7.2;;
68872;SDS011;55907;50.806;12.882;2023-02-22T07:52:53;12.8;;;7.5;;
68872;SDS011;55907;50.806;12.882;2023-02-22T07:55:54;13.5;;;7.7;;
68872;SDS011;55907;50.806;12.882;2023-02-22T07:58:55;12.2;;;7.6;;
68872;SDS011;55907;50.806;12.882;2023-02-22T08:01:57;12.5;;;7.6;;
68872;SDS011;55907;50.806;12.882;2023-02-22T08:04:58;13.5;;;7.5;;
68872;SDS011;55907;50.806;12.882;2023-02-22T08:08:00;11.3;;;7.2;;
68872;SDS011;55907;50.806;12.882;2023-02-22T08:11:01;10.1;;;6.7;;
68872;SDS011;55907;50.806;12.882;2023-02-22T08:14:03;13.0;;;7.2;;
68872;SDS011;55907;50.806;12.882;2023-02-22T08:17:04;11.7;;;6.6;;
68872;SDS011;55907;50.806;12.882;2023-02-22T08:20:06;11.4;;;6.4;;
68872;SDS011;55907;50.806;12.882;2023-02-22T08:23:08;10.3;;;6.7;;
68872;SDS011;55907;50.806;12.882;2023-02-22T08:26:10;10.9;;;7.0;;
68872;SDS011;55907;50.806;12.882;2023-02-22T08:29:10;13.9;;;7.1;;
68872;SDS011;55907;50.806;12.882;2023-02-22T08:32:12;11.0;;;6.6;;
68872;SDS011;55907;50.806;12.882;2023-02-22T08:35:14;12.9;;;7.8;;
68872;SDS011;55907;50.806;12.882;2023-02-22T08:38:16;11.2;;;7.1;;
68872;SDS011;55907;50.806;12.882;2023-02-22T08:41:16;13.4;;;7.1;;
68872;SDS011;55907;50.806;12.882;2023-02-22T08:44:17;12.2;;;6.6;;
68872;SDS011;55907;50.806;12.882;2023-02-22T08:47:19;11.8;;;6.6;;
68872;SDS011;55907;50.806;12.882;2023-02-22T08:50:21;10.0;;;6.1;;
68872;SDS011;55907;50.806;12.882;2023-02-22T08:53:22;9.5;;;5.6;;
68872;SDS011;55907;50.806;12.882;2023-02-22T08:56:23;10.5;;;6.1;;
68872;SDS011;55907;50.806;12.882;2023-02-22T08:59:25;9.1;;;5.8;;
68872;SDS011;55907;50.806;12.882;2023-02-22T09:02:26;11.2;;;5.9;;
68872;SDS011;55907;50.806;12.882;2023-02-22T09:05:28;8.8;;;5.6;;
68872;SDS011;55907;50.806;12.882;2023-02-22T09:08:29;8.5;;;5.3;;
68872;SDS011;55907;50.806;12.882;2023-02-22T09:11:31;8.2;;;4.9;;
68872;SDS011;55907;50.806;12.882;2023-02-22T09:14:32;7.9;;;5.0;;
68872;SDS011;55907;50.806;12.882;2023-02-22T09:17:34;8.0;;;5.0;;
68872;SDS011;55907;50.806;12.882;2023-02-22T09:20:35;8.2;;;5.0;;
68872;SDS011;55907;50.806;12.882;2023-02-22T09:23:37;8.0;;;4.9;;
68872;SDS011;55907;50.806;12.882;2023-02-22T09:26:38;8.1;;;5.2;;
68872;SDS011;55907;50.806;12.882;2023-02-22T09:29:40;7.4;;;4.9;;
68872;SDS011;55907;50.806;12.882;2023-02-22T09:32:41;9.5;;;5.7;;
68872;SDS011;55907;50.806;12.882;2023-02-22T09:35:43;9.6;;;4.9;;
68872;SDS011;55907;50.806;12.882;2023-02-22T09:38:44;7.8;;;4.7;;
68872;SDS011;55907;50.806;12.882;2023-02-22T09:41:49;7.7;;;4.9;;
68872;SDS011;55907;50.806;12.882;2023-02-22T09:44:48;6.4;;;4.5;;
68872;SDS011;55907;50.806;12.882;2023-02-22T09:47:49;6.1;;;4.2;;
68872;SDS011;55907;50.806;12.882;2023-02-22T09:50:50;7.2;;;4.2;;
68872;SDS011;55907;50.806;12.882;2023-02-22T09:53:52;5.3;;;3.8;;
68872;SDS011;55907;50.806;12.882;2023-02-22T09:56:54;6.1;;;3.6;;
68872;SDS011;55907;50.806;12.882;2023-02-22T09:59:56;4.8;;;3.8;;
68872;SDS011;55907;50.806;12.882;2023-02-22T10:02:57;6.0;;;3.8;;
68872;SDS011;55907;50.806;12.882;2023-02-22T10:05:57;6.3;;;4.0;;
68872;SDS011;55907;50.806;12.882;2023-02-22T10:08:59;5.4;;;3.8;;
68872;SDS011;55907;50.806;12.882;2023-02-22T10:12:01;6.5;;;4.1;;
68872;SDS011;55907;50.806;12.882;2023-02-22T10:18:11;5.7;;;3.7;;
68872;SDS011;55907;50.806;12.882;2023-02-22T10:21:06;6.4;;;3.8;;
68872;SDS011;55907;50.806;12.882;2023-02-22T10:24:08;4.5;;;3.6;;
68872;SDS011;55907;50.806;12.882;2023-02-22T10:27:09;5.9;;;3.6;;
68872;SDS011;55907;50.806;12.882;2023-02-22T10:30:13;5.3;;;3.4;;
68872;SDS011;55907;50.806;12.882;2023-02-22T10:33:11;4.9;;;3.6;;
68872;SDS011;55907;50.806;12.882;2023-02-22T10:36:14;4.4;;;3.2;;
68872;SDS011;55907;50.806;12.882;2023-02-22T10:39:17;4.6;;;3.4;;
68872;SDS011;55907;50.806;12.882;2023-02-22T10:42:14;3.9;;;2.9;;
68872;SDS011;55907;50.806;12.882;2023-02-22T10:45:18;4.4;;;3.2;;
68872;SDS011;55907;50.806;12.882;2023-02-22T10:48:18;5.3;;;3.1;;
68872;SDS011;55907;50.806;12.882;2023-02-22T10:51:19;4.5;;;3.1;;
68872;SDS011;55907;50.806;12.882;2023-02-22T10:54:22;4.3;;;3.3;;
68872;SDS011;55907;50.806;12.882;2023-02-22T10:57:23;4.7;;;2.9;;
68872;SDS011;55907;50.806;12.882;2023-02-22T11:00:28;4.9;;;3.0;;
68872;SDS011;55907;50.806;12.882;2023-02-22T11:03:24;3.0;;;2.4;;
68872;SDS011;55907;50.806;12.882;2023-02-22T11:06:26;2.8;;;2.5;;
68872;SDS011;55907;50.806;12.882;2023-02-22T11:09:27;2.9;;;2.4;;
68872;SDS011;55907;50.806;12.882;2023-02-22T11:12:29;3.0;;;2.5;;
68872;SDS011;55907;50.806;12.882;2023-02-22T11:15:30;2.5;;;2.1;;
68872;SDS011;55907;50.806;12.882;2023-02-22T11:18:32;3.0;;;2.2;;
68872;SDS011;55907;50.806;12.882;2023-02-22T11:21:33;2.8;;;2.3;;
68872;SDS011;55907;50.806;12.882;2023-02-22T11:24:35;3.0;;;2.4;;
68872;SDS011;55907;50.806;12.882;2023-02-22T11:27:37;5.0;;;3.2;;
68872;SDS011;55907;50.806;12.882;2023-02-22T11:30:37;4.5;;;3.4;;
68872;SDS011;55907;50.806;12.882;2023-02-22T11:33:52;4.3;;;2.7;;
68872;SDS011;55907;50.806;12.882;2023-02-22T11:36:41;4.9;;;2.9;;
68872;SDS011;55907;50.806;12.882;2023-02-22T11:39:42;13.2;;;9.1;;
68872;SDS011;55907;50.806;12.882;2023-02-22T11:42:43;12.0;;;8.5;;
68872;SDS011;55907;50.806;12.882;2023-02-22T11:48:52;4.6;;;3.2;;
68872;SDS011;55907;50.806;12.882;2023-02-22T11:51:52;3.6;;;2.9;;
68872;SDS011;55907;50.806;12.882;2023-02-22T11:54:52;4.5;;;3.2;;
68872;SDS011;55907;50.806;12.882;2023-02-22T12:00:52;5.1;;;2.8;;
68872;SDS011;55907;50.806;12.882;2023-02-22T12:04:01;3.5;;;2.7;;
68872;SDS011;55907;50.806;12.882;2023-02-22T12:06:57;4.4;;;3.1;;
68872;SDS011;55907;50.806;12.882;2023-02-22T12:09:58;4.5;;;2.9;;
68872;SDS011;55907;50.806;12.882;2023-02-22T12:13:00;3.9;;;2.9;;
68872;SDS011;55907;50.806;12.882;2023-02-22T12:16:00;4.3;;;3.0;;
68872;SDS011;55907;50.806;12.882;2023-02-22T12:19:05;4.2;;;2.8;;
68872;SDS011;55907;50.806;12.882;2023-02-22T12:22:02;4.5;;;3.2;;
68872;SDS011;55907;50.806;12.882;2023-02-22T12:25:04;4.8;;;3.0;;
68872;SDS011;55907;50.806;12.882;2023-02-22T12:28:09;4.1;;;2.8;;
68872;SDS011;55907;50.806;12.882;2023-02-22T12:31:09;5.9;;;3.8;;
68872;SDS011;55907;50.806;12.882;2023-02-22T12:34:10;5.1;;;4.1;;
68872;SDS011;55907;50.806;12.882;2023-02-22T12:37:12;5.4;;;3.6;;
68872;SDS011;55907;50.806;12.882;2023-02-22T12:40:12;4.8;;;3.5;;
68872;SDS011;55907;50.806;12.882;2023-02-22T12:43:14;7.7;;;4.5;;
68872;SDS011;55907;50.806;12.882;2023-02-22T12:46:14;5.9;;;3.4;;
68872;SDS011;55907;50.806;12.882;2023-02-22T12:49:15;6.8;;;5.1;;
68872;SDS011;55907;50.806;12.882;2023-02-22T12:52:18;5.4;;;3.3;;
68872;SDS011;55907;50.806;12.882;2023-02-22T12:55:18;5.8;;;3.4;;
68872;SDS011;55907;50.806;12.882;2023-02-22T12:58:20;3.8;;;3.2;;
68872;SDS011;55907;50.806;12.882;2023-02-22T13:01:20;5.2;;;3.1;;
68872;SDS011;55907;50.806;12.882;2023-02-22T13:04:21;4.9;;;3.0;;
68872;SDS011;55907;50.806;12.882;2023-02-22T13:07:26;5.8;;;3.1;;
68872;SDS011;55907;50.806;12.882;2023-02-22T13:10:34;5.0;;;3.0;;
68872;SDS011;55907;50.806;12.882;2023-02-22T13:13:28;5.3;;;3.3;;
68872;SDS011;55907;50.806;12.882;2023-02-22T13:16:30;4.3;;;2.9;;
68872;SDS011;55907;50.806;12.882;2023-02-22T13:19:32;5.4;;;3.0;;
68872;SDS011;55907;50.806;12.882;2023-02-22T13:22:32;4.7;;;2.8;;
68872;SDS011;55907;50.806;12.882;2023-02-22T13:25:33;3.7;;;2.6;;
68872;SDS011;55907;50.806;12.882;2023-02-22T13:28:34;3.5;;;2.7;;
68872;SDS011;55907;50.806;12.882;2023-02-22T13:31:37;3.3;;;2.8;;
68872;SDS011;55907;50.806;12.882;2023-02-22T13:34:40;4.5;;;3.1;;
68872;SDS011;55907;50.806;12.882;2023-02-22T13:37:42;4.7;;;2.8;;
68872;SDS011;55907;50.806;12.882;2023-02-22T13:40:44;4.0;;;2.7;;
68872;SDS011;55907;50.806;12.882;2023-02-22T13:46:46;5.9;;;2.5;;
68872;SDS011;55907;50.806;12.882;2023-02-22T13:49:47;4.4;;;2.8;;
68872;SDS011;55907;50.806;12.882;2023-02-22T13:52:44;3.0;;;2.3;;
68872;SDS011;55907;50.806;12.882;2023-02-22T13:55:46;3.5;;;2.3;;
68872;SDS011;55907;50.806;12.882;2023-02-22T13:58:48;2.8;;;2.2;;
68872;SDS011;55907;50.806;12.882;2023-02-22T14:01:48;3.3;;;2.2;;
68872;SDS011;55907;50.806;12.882;2023-02-22T14:04:49;4.1;;;1.9;;
68872;SDS011;55907;50.806;12.882;2023-02-22T14:07:51;2.9;;;2.1;;
68872;SDS011;55907;50.806;12.882;2023-02-22T14:10:53;2.3;;;1.8;;
68872;SDS011;55907;50.806;12.882;2023-02-22T14:20:01;2.9;;;2.0;;
68872;SDS011;55907;50.806;12.882;2023-02-22T14:29:02;2.6;;;1.9;;
68872;SDS011;55907;50.806;12.882;2023-02-22T14:32:04;3.2;;;1.8;;
68872;SDS011;55907;50.806;12.882;2023-02-22T14:35:04;2.3;;;1.7;;
68872;SDS011;55907;50.806;12.882;2023-02-22T14:38:06;2.1;;;1.7;;
68872;SDS011;55907;50.806;12.882;2023-02-22T14:41:07;2.2;;;1.8;;
68872;SDS011;55907;50.806;12.882;2023-02-22T14:44:08;1.9;;;1.5;;
68872;SDS011;55907;50.806;12.882;2023-02-22T14:47:13;2.0;;;1.7;;
68872;SDS011;55907;50.806;12.882;2023-02-22T14:50:13;2.5;;;1.4;;
68872;SDS011;55907;50.806;12.882;2023-02-22T14:53:14;1.7;;;1.4;;
68872;SDS011;55907;50.806;12.882;2023-02-22T14:56:15;2.1;;;1.4;;
68872;SDS011;55907;50.806;12.882;2023-02-22T14:59:16;3.9;;;1.6;;
68872;SDS011;55907;50.806;12.882;2023-02-22T15:02:17;1.9;;;1.5;;
68872;SDS011;55907;50.806;12.882;2023-02-22T15:05:18;2.1;;;1.3;;
68872;SDS011;55907;50.806;12.882;2023-02-22T15:08:20;3.6;;;1.8;;
68872;SDS011;55907;50.806;12.882;2023-02-22T15:11:22;3.3;;;1.9;;
68872;SDS011;55907;50.806;12.882;2023-02-22T15:14:24;3.5;;;1.9;;
68872;SDS011;55907;50.806;12.882;2023-02-22T15:17:24;3.9;;;2.6;;
68872;SDS011;55907;50.806;12.882;2023-02-22T15:20:26;4.3;;;2.7;;
68872;SDS011;55907;50.806;12.882;2023-02-22T15:23:28;4.1;;;2.3;;
68872;SDS011;55907;50.806;12.882;2023-02-22T15:26:30;2.6;;;1.8;;
68872;SDS011;55907;50.806;12.882;2023-02-22T15:29:31;3.2;;;1.7;;
68872;SDS011;55907;50.806;12.882;2023-02-22T15:32:32;3.0;;;1.9;;
68872;SDS011;55907;50.806;12.882;2023-02-22T15:35:33;2.0;;;1.7;;
68872;SDS011;55907;50.806;12.882;2023-02-22T15:38:37;3.0;;;2.0;;
68872;SDS011;55907;50.806;12.882;2023-02-22T15:41:36;2.8;;;2.1;;
68872;SDS011;55907;50.806;12.882;2023-02-22T15:47:39;3.4;;;2.1;;
68872;SDS011;55907;50.806;12.882;2023-02-22T15:50:44;2.7;;;2.2;;
68872;SDS011;55907;50.806;12.882;2023-02-22T15:53:42;4.3;;;2.6;;
68872;SDS011;55907;50.806;12.882;2023-02-22T15:56:46;3.7;;;2.3;;
68872;SDS011;55907;50.806;12.882;2023-02-22T15:59:47;3.4;;;2.8;;
68872;SDS011;55907;50.806;12.882;2023-02-22T16:02:46;4.0;;;3.1;;
68872;SDS011;55907;50.806;12.882;2023-02-22T16:05:49;5.3;;;3.5;;
68872;SDS011;55907;50.806;12.882;2023-02-22T16:08:50;9.0;;;5.6;;
68872;SDS011;55907;50.806;12.882;2023-02-22T16:11:58;5.8;;;3.8;;
68872;SDS011;55907;50.806;12.882;2023-02-22T16:14:52;5.2;;;3.8;;
68872;SDS011;55907;50.806;12.882;2023-02-22T16:17:53;6.6;;;4.8;;
68872;SDS011;55907;50.806;12.882;2023-02-22T16:20:56;7.8;;;4.0;;
68872;SDS011;55907;50.806;12.882;2023-02-22T16:23:57;8.1;;;5.5;;
68872;SDS011;55907;50.806;12.882;2023-02-22T16:27:02;7.7;;;4.9;;
68872;SDS011;55907;50.806;12.882;2023-02-22T16:30:05;6.3;;;4.4;;
68872;SDS011;55907;50.806;12.882;2023-02-22T16:33:02;7.4;;;4.7;;
68872;SDS011;55907;50.806;12.882;2023-02-22T16:36:03;6.5;;;4.7;;
68872;SDS011;55907;50.806;12.882;2023-02-22T16:39:04;7.6;;;4.7;;
68872;SDS011;55907;50.806;12.882;2023-02-22T16:42:05;7.1;;;4.7;;
68872;SDS011;55907;50.806;12.882;2023-02-22T16:45:07;7.2;;;5.2;;
68872;SDS011;55907;50.806;12.882;2023-02-22T16:48:10;7.9;;;5.2;;
68872;SDS011;55907;50.806;12.882;2023-02-22T16:51:15;10.5;;;6.1;;
68872;SDS011;55907;50.806;12.882;2023-02-22T16:54:12;7.7;;;5.6;;
68872;SDS011;55907;50.806;12.882;2023-02-22T16:57:15;8.8;;;6.1;;
68872;SDS011;55907;50.806;12.882;2023-02-22T17:00:15;8.9;;;6.4;;
68872;SDS011;55907;50.806;12.882;2023-02-22T17:03:16;11.1;;;7.0;;
68872;SDS011;55907;50.806;12.882;2023-02-22T17:06:17;12.2;;;7.2;;
68872;SDS011;55907;50.806;12.882;2023-02-22T17:09:19;12.1;;;7.4;;
68872;SDS011;55907;50.806;12.882;2023-02-22T17:12:20;11.4;;;7.5;;
68872;SDS011;55907;50.806;12.882;2023-02-22T17:15:23;9.7;;;7.3;;
68872;SDS011;55907;50.806;12.882;2023-02-22T17:18:24;11.2;;;7.8;;
68872;SDS011;55907;50.806;12.882;2023-02-22T17:21:25;12.5;;;8.0;;
68872;SDS011;55907;50.806;12.882;2023-02-22T17:24:26;11.2;;;8.0;;
68872;SDS011;55907;50.806;12.882;2023-02-22T17:27:28;12.0;;;8.3;;
68872;SDS011;55907;50.806;12.882;2023-02-22T17:30:29;13.2;;;8.3;;
68872;SDS011;55907;50.806;12.882;2023-02-22T17:33:31;11.4;;;8.4;;
68872;SDS011;55907;50.806;12.882;2023-02-22T17:36:32;13.4;;;8.4;;
68872;SDS011;55907;50.806;12.882;2023-02-22T17:39:33;11.8;;;8.9;;
68872;SDS011;55907;50.806;12.882;2023-02-22T17:42:35;12.4;;;8.9;;
68872;SDS011;55907;50.806;12.882;2023-02-22T17:48:39;13.4;;;9.1;;
68872;SDS011;55907;50.806;12.882;2023-02-22T17:51:39;14.1;;;9.4;;
68872;SDS011;55907;50.806;12.882;2023-02-22T17:57:42;15.9;;;10.1;;
68872;SDS011;55907;50.806;12.882;2023-02-22T18:00:45;13.8;;;10.1;;
68872;SDS011;55907;50.806;12.882;2023-02-22T18:06:47;16.8;;;10.1;;
68872;SDS011;55907;50.806;12.882;2023-02-22T18:09:49;14.7;;;9.9;;
68872;SDS011;55907;50.806;12.882;2023-02-22T18:12:50;16.9;;;10.5;;
68872;SDS011;55907;50.806;12.882;2023-02-22T18:15:51;14.8;;;10.7;;
68872;SDS011;55907;50.806;12.882;2023-02-22T18:18:53;15.3;;;10.9;;
68872;SDS011;55907;50.806;12.882;2023-02-22T18:24:56;16.6;;;10.8;;
68872;SDS011;55907;50.806;12.882;2023-02-22T18:27:58;15.6;;;10.7;;
68872;SDS011;55907;50.806;12.882;2023-02-22T18:31:04;16.2;;;10.7;;
68872;SDS011;55907;50.806;12.882;2023-02-22T18:34:00;19.0;;;10.9;;
68872;SDS011;55907;50.806;12.882;2023-02-22T18:37:02;16.4;;;11.1;;
68872;SDS011;55907;50.806;12.882;2023-02-22T18:43:05;17.6;;;11.0;;
68872;SDS011;55907;50.806;12.882;2023-02-22T18:46:07;19.0;;;11.3;;
68872;SDS011;55907;50.806;12.882;2023-02-22T18:49:09;14.6;;;10.5;;
68872;SDS011;55907;50.806;12.882;2023-02-22T18:52:10;15.6;;;10.5;;
68872;SDS011;55907;50.806;12.882;2023-02-22T18:55:12;15.5;;;10.5;;
68872;SDS011;55907;50.806;12.882;2023-02-22T18:58:13;17.4;;;11.0;;
68872;SDS011;55907;50.806;12.882;2023-02-22T19:01:15;15.8;;;10.9;;
68872;SDS011;55907;50.806;12.882;2023-02-22T19:04:16;16.9;;;11.3;;
68872;SDS011;55907;50.806;12.882;2023-02-22T19:07:17;19.3;;;11.5;;
68872;SDS011;55907;50.806;12.882;2023-02-22T19:10:19;17.1;;;10.8;;